aviador You're here:

CYEK Decoded Metar

ESKIMO POINT in NU, CANADA
Report Time2018-06-17 21:00:00
UTC Time2018-06-17 21:35:18
Flight Rules vfr VFR
Wind020° at 05 kt
W.Decomp.*RWY 33: 2.9 kt HW 4.0 kt RCW
W.Rank020° ranks 16
Current wind is below 020° avg. (11.1)
Visibility9999 m
Phenomena:N/A
Clouds:Scattered 120 Hf
Scattered 140 Hf
Scattered 160 Hf
Expected CloudBase > 2,400 ft AGL from Temp-Dew spread
CeilingNone
Temp14°C (ISA -1)
Dew Point08°C (67% RH)
AAT11.7°C
QNH1010 hPa
Density Alt171 ft
Elevation33 ft
Report Wrong Elevation
Raw Report
CYEK 172100Z AUTO 02005KT 9SM SCT120 SCT140 SCT160 14/08 A2983 RMK
SLP102=

Extra information for CYEK:More info

Metar Taf Metar & Taf Last 4 Metars F.Rules Stats Wind Profile Meteogram Temp Stats Airport Information Weather charts Add Link Nearby VenuesMetar ALERT Operation Metar Decoded Social comments